createdAt,value
2019-02-08T00:01:30.445Z,5.10
2019-02-08T00:04:18.578Z,5.10
2019-02-08T00:07:07.807Z,5.10
2019-02-08T00:09:56.667Z,4.90
2019-02-08T00:12:49.219Z,5.00
2019-02-08T00:15:37.816Z,5.10
2019-02-08T00:18:26.018Z,5.10
2019-02-08T00:21:14.867Z,5.00
2019-02-08T00:24:03.008Z,4.90
2019-02-08T00:26:51.143Z,5.00
2019-02-08T00:29:39.105Z,5.10
2019-02-08T00:32:26.779Z,5.10
2019-02-08T00:38:03.396Z,5.20
2019-02-08T00:40:51.526Z,5.20
2019-02-08T00:43:39.638Z,5.10
2019-02-08T00:46:28.310Z,5.10
2019-02-08T00:49:16.832Z,5.10
2019-02-08T00:52:05.117Z,5.20
2019-02-08T00:54:54.078Z,5.20
2019-02-08T00:57:42.555Z,5.20
2019-02-08T01:03:25.533Z,5.10
2019-02-08T01:06:14.015Z,5.10
2019-02-08T01:09:11.066Z,5.20
2019-02-08T01:11:59.722Z,5.20
2019-02-08T01:14:48.116Z,5.30
2019-02-08T01:17:36.427Z,5.30
2019-02-08T01:20:24.875Z,5.40
2019-02-08T01:23:13.081Z,5.50
2019-02-08T01:26:01.874Z,5.50
2019-02-08T01:28:50.570Z,5.60
2019-02-08T01:31:38.784Z,5.60
2019-02-08T01:34:26.927Z,5.50
2019-02-08T01:37:15.553Z,5.60
2019-02-08T01:40:04.847Z,5.70
2019-02-08T01:42:53.411Z,5.70
2019-02-08T01:45:42.183Z,5.70
2019-02-08T01:48:30.479Z,5.70
2019-02-08T01:51:19.517Z,5.80
2019-02-08T01:54:07.348Z,5.80
2019-02-08T01:56:55.895Z,5.60
2019-02-08T01:59:43.847Z,5.70
2019-02-08T02:02:32.541Z,5.70
2019-02-08T02:05:21.575Z,5.60
2019-02-08T02:08:09.764Z,5.60
2019-02-08T02:10:58.516Z,5.60
2019-02-08T02:13:46.927Z,5.70
2019-02-08T02:16:35.197Z,5.50
2019-02-08T02:19:22.738Z,5.70
2019-02-08T02:22:10.966Z,5.80
2019-02-08T02:24:59.095Z,5.70
2019-02-08T02:27:46.915Z,5.70
2019-02-08T02:30:35.540Z,5.60
2019-02-08T02:33:24.119Z,5.70
2019-02-08T02:36:12.862Z,5.70
2019-02-08T02:39:01.454Z,5.70
2019-02-08T02:41:50.495Z,5.80
2019-02-08T02:44:38.583Z,5.80
2019-02-08T02:47:27.814Z,5.80
2019-02-08T02:50:16.051Z,5.80
2019-02-08T02:53:04.666Z,5.70
2019-02-08T02:55:53.433Z,5.80
2019-02-08T02:58:41.174Z,5.70
2019-02-08T03:01:29.471Z,5.70
2019-02-08T03:04:18.023Z,5.50
2019-02-08T03:07:06.257Z,5.70
2019-02-08T03:09:54.120Z,5.60
2019-02-08T03:12:48.110Z,5.50
2019-02-08T03:15:36.456Z,5.70
2019-02-08T03:18:24.845Z,5.80
2019-02-08T03:21:13.543Z,5.60
2019-02-08T03:24:02.312Z,5.70
2019-02-08T03:26:50.490Z,5.80
2019-02-08T03:29:38.860Z,5.80
2019-02-08T03:32:26.868Z,5.80
2019-02-08T03:35:20.478Z,5.90
2019-02-08T03:38:09.480Z,5.90
2019-02-08T03:40:57.552Z,6.00
2019-02-08T03:43:45.970Z,6.00
2019-02-08T03:46:35.243Z,6.00
2019-02-08T03:49:23.585Z,6.00
2019-02-08T03:52:11.881Z,5.90
2019-02-08T03:54:59.879Z,6.00
2019-02-08T03:57:48.651Z,6.00
2019-02-08T04:00:45.803Z,6.00
2019-02-08T04:03:34.463Z,5.80
2019-02-08T04:06:22.634Z,5.80
2019-02-08T04:09:11.278Z,5.70
2019-02-08T04:11:59.608Z,5.80
2019-02-08T04:14:47.730Z,5.90
2019-02-08T04:17:36.060Z,5.90
2019-02-08T04:20:25.581Z,5.90
2019-02-08T04:23:13.867Z,5.80
2019-02-08T04:26:01.651Z,5.90
2019-02-08T04:28:50.935Z,5.80
2019-02-08T04:31:39.093Z,5.80
2019-02-08T04:34:27.210Z,5.90
2019-02-08T04:37:15.282Z,5.70
2019-02-08T04:40:03.953Z,5.80
2019-02-08T04:42:52.475Z,5.90
2019-02-08T04:45:40.529Z,5.80
2019-02-08T04:48:29.169Z,5.80
2019-02-08T04:51:17.472Z,5.90
2019-02-08T04:54:06.175Z,5.80
2019-02-08T04:56:54.263Z,5.70
2019-02-08T04:59:42.322Z,5.70
2019-02-08T05:02:36.360Z,5.70
2019-02-08T05:05:25.251Z,5.70
2019-02-08T05:08:13.801Z,5.80
2019-02-08T05:11:02.248Z,5.80
2019-02-08T05:13:50.503Z,5.80
2019-02-08T05:16:39.339Z,5.70
2019-02-08T05:19:27.390Z,5.70
2019-02-08T05:22:15.892Z,5.70
2019-02-08T05:25:04.730Z,5.80
2019-02-08T05:27:53.330Z,5.70
2019-02-08T05:30:41.314Z,5.80
2019-02-08T05:33:30.237Z,5.90
2019-02-08T05:36:18.332Z,6.00
2019-02-08T05:39:10.470Z,5.80
2019-02-08T05:41:59.030Z,5.80
2019-02-08T05:44:47.916Z,5.80
2019-02-08T05:47:36.344Z,5.80
2019-02-08T05:50:25.614Z,5.70
2019-02-08T05:53:14.486Z,5.70
2019-02-08T05:56:03.278Z,5.60
2019-02-08T05:58:51.673Z,5.50
2019-02-08T06:01:39.550Z,5.70
2019-02-08T06:04:27.581Z,5.70
2019-02-08T06:07:15.731Z,5.70
2019-02-08T06:10:06.282Z,5.70
2019-02-08T06:12:55.329Z,5.60
2019-02-08T06:15:43.657Z,5.70
2019-02-08T06:18:31.731Z,5.80
2019-02-08T06:21:19.770Z,5.80
2019-02-08T06:24:07.911Z,5.80
2019-02-08T06:26:55.735Z,5.70
2019-02-08T06:29:44.178Z,5.80
2019-02-08T06:32:32.095Z,5.90
2019-02-08T06:35:22.134Z,6.10
2019-02-08T06:38:10.301Z,5.90
2019-02-08T06:40:58.601Z,5.90
2019-02-08T06:43:47.378Z,5.90
2019-02-08T06:46:36.310Z,5.90
2019-02-08T06:49:24.463Z,5.90
2019-02-08T06:52:13.329Z,5.90
2019-02-08T06:55:01.467Z,5.90
2019-02-08T06:58:07.162Z,6.00
2019-02-08T07:01:14.618Z,6.00
2019-02-08T07:04:17.829Z,5.90
2019-02-08T07:07:25.522Z,6.00
2019-02-08T07:10:32.518Z,5.80
2019-02-08T07:13:40.215Z,5.90
2019-02-08T07:16:45.943Z,5.90
2019-02-08T07:20:05.093Z,6.00
2019-02-08T07:23:15.178Z,6.00
2019-02-08T07:26:28.610Z,6.00
2019-02-08T07:29:38.386Z,6.10
2019-02-08T07:32:35.358Z,5.90
2019-02-08T07:35:41.281Z,6.00
2019-02-08T07:38:38.624Z,6.00
2019-02-08T07:41:57.090Z,6.00
2019-02-08T07:45:13.308Z,5.90
2019-02-08T07:48:14.724Z,6.00
2019-02-08T07:51:18.147Z,6.00
2019-02-08T07:54:32.826Z,6.20
2019-02-08T07:57:46.595Z,6.20
2019-02-08T08:00:54.556Z,6.40
2019-02-08T08:04:01.664Z,6.40
2019-02-08T08:07:16.375Z,6.50
2019-02-08T08:10:44.309Z,6.50
2019-02-08T08:13:58.065Z,6.60
2019-02-08T08:17:11.839Z,6.50
2019-02-08T08:20:07.325Z,6.60
2019-02-08T08:22:54.902Z,6.70
2019-02-08T08:26:04.742Z,6.70
2019-02-08T08:29:18.019Z,6.90
2019-02-08T08:32:17.977Z,7.20
2019-02-08T08:35:29.643Z,7.40
2019-02-08T08:39:07.842Z,7.40
2019-02-08T08:42:30.337Z,7.50
2019-02-08T08:45:54.803Z,7.60
2019-02-08T08:49:19.231Z,7.80
2019-02-08T08:52:29.293Z,8.20
2019-02-08T08:55:59.074Z,8.50
2019-02-08T08:59:18.821Z,8.80
2019-02-08T09:02:34.855Z,8.90
2019-02-08T09:06:08.427Z,9.10
2019-02-08T09:09:07.531Z,9.30
2019-02-08T09:12:11.280Z,9.60
2019-02-08T09:15:20.678Z,9.80
2019-02-08T09:18:24.980Z,9.80
2019-02-08T09:21:41.327Z,9.90
2019-02-08T09:24:50.446Z,10.00
2019-02-08T09:28:15.609Z,9.90
2019-02-08T09:31:32.789Z,10.00
2019-02-08T09:38:23.944Z,10.30
2019-02-08T09:41:44.386Z,10.40
2019-02-08T09:45:14.726Z,10.40
2019-02-08T09:48:35.734Z,10.30
2019-02-08T09:52:06.480Z,10.10
2019-02-08T09:55:42.255Z,9.90
2019-02-08T09:59:08.771Z,9.40
2019-02-08T10:02:35.547Z,9.70
2019-02-08T10:05:59.793Z,9.90
2019-02-08T10:09:36.290Z,10.00
2019-02-08T10:13:07.477Z,10.10
2019-02-08T10:16:44.148Z,10.20
2019-02-08T10:20:01.222Z,10.20
2019-02-08T10:23:29.210Z,10.50
2019-02-08T10:27:01.518Z,10.40
2019-02-08T10:30:29.462Z,10.70
2019-02-08T10:33:53.886Z,11.00
2019-02-08T10:37:29.030Z,11.40
2019-02-08T10:44:46.970Z,11.80
2019-02-08T10:48:11.890Z,12.10
2019-02-08T10:51:42.363Z,12.00
2019-02-08T10:55:04.058Z,12.20
2019-02-08T11:02:04.365Z,13.00
2019-02-08T11:05:29.718Z,13.10
2019-02-08T11:08:52.672Z,13.70
2019-02-08T11:12:24.310Z,13.90
2019-02-08T11:15:47.726Z,14.50
2019-02-08T11:19:11.376Z,15.10
2019-02-08T11:21:59.987Z,15.30
2019-02-08T11:24:48.383Z,15.80
2019-02-08T11:27:36.561Z,15.90
2019-02-08T11:30:24.571Z,15.10
2019-02-08T11:33:13.108Z,15.80
2019-02-08T11:36:02.546Z,16.40
2019-02-08T11:38:50.921Z,17.20
2019-02-08T11:41:39.590Z,18.80
2019-02-08T11:44:27.891Z,19.10
2019-02-08T11:47:16.594Z,18.20
2019-02-08T11:50:07.168Z,16.80
2019-02-08T11:52:55.313Z,15.80
2019-02-08T11:55:48.189Z,15.90
2019-02-08T11:58:36.446Z,16.80
2019-02-08T12:01:25.284Z,17.30
2019-02-08T12:04:15.153Z,16.10
2019-02-08T12:07:02.714Z,15.80
2019-02-08T12:09:50.930Z,15.30
2019-02-08T12:12:39.198Z,15.20
2019-02-08T12:15:27.551Z,15.90
2019-02-08T12:18:15.516Z,16.40
2019-02-08T12:21:03.339Z,16.00
2019-02-08T12:23:51.957Z,16.20
2019-02-08T12:26:40.298Z,16.60
2019-02-08T12:29:29.664Z,16.80
2019-02-08T12:32:18.449Z,16.80
2019-02-08T12:35:07.362Z,17.00
2019-02-08T12:37:55.508Z,16.60
2019-02-08T12:40:44.773Z,16.40
2019-02-08T12:43:33.845Z,16.30
2019-02-08T12:46:23.641Z,16.00
2019-02-08T12:49:12.019Z,15.80
2019-02-08T12:52:05.023Z,15.90
2019-02-08T12:54:53.575Z,16.00
2019-02-08T12:57:42.035Z,16.30
2019-02-08T13:00:42.110Z,16.60
2019-02-08T13:03:30.382Z,16.50
2019-02-08T13:06:19.986Z,16.60
2019-02-08T13:09:10.982Z,16.50
2019-02-08T13:11:59.773Z,16.50
2019-02-08T13:14:47.962Z,16.30
2019-02-08T13:17:35.644Z,16.30
2019-02-08T13:20:23.316Z,16.20
2019-02-08T13:23:11.947Z,15.90
2019-02-08T13:25:59.914Z,15.60
2019-02-08T13:28:48.584Z,15.40
2019-02-08T13:31:37.808Z,15.00
2019-02-08T13:34:27.140Z,14.40
2019-02-08T13:37:15.599Z,14.20
2019-02-08T13:40:05.784Z,14.20
2019-02-08T13:42:59.441Z,14.30
2019-02-08T13:45:48.549Z,14.00
2019-02-08T13:48:37.136Z,13.90
2019-02-08T13:51:26.831Z,14.00
2019-02-08T13:54:15.571Z,14.10
2019-02-08T13:57:04.567Z,14.00
2019-02-08T13:59:55.282Z,14.20
2019-02-08T14:02:44.532Z,14.20
2019-02-08T14:05:34.297Z,14.20
2019-02-08T14:08:23.120Z,14.40
2019-02-08T14:11:10.981Z,14.50
2019-02-08T14:13:59.012Z,14.60
2019-02-08T14:16:48.583Z,14.50
2019-02-08T14:19:37.648Z,14.90
2019-02-08T14:22:25.722Z,15.00
2019-02-08T14:25:14.215Z,14.80
2019-02-08T14:28:02.498Z,14.60
2019-02-08T14:30:50.853Z,14.60
2019-02-08T14:33:40.150Z,14.40
2019-02-08T14:36:28.351Z,14.40
2019-02-08T14:39:18.014Z,14.30
2019-02-08T14:42:07.047Z,14.10
2019-02-08T14:44:56.620Z,14.10
2019-02-08T14:47:49.126Z,13.90
2019-02-08T14:50:43.514Z,13.80
2019-02-08T14:53:32.732Z,13.90
2019-02-08T14:56:21.704Z,13.90
2019-02-08T14:59:10.232Z,13.90
2019-02-08T15:01:58.474Z,13.90
2019-02-08T15:04:47.946Z,13.80
2019-02-08T15:07:36.379Z,13.50
2019-02-08T15:10:30.448Z,13.10
2019-02-08T15:13:18.405Z,13.30
2019-02-08T15:16:06.958Z,13.20
2019-02-08T15:18:55.368Z,12.80
2019-02-08T15:21:43.511Z,12.80
2019-02-08T15:24:31.704Z,12.70
2019-02-08T15:27:24.272Z,12.50
2019-02-08T15:30:12.031Z,12.10
2019-02-08T15:33:01.502Z,12.00
2019-02-08T15:35:50.216Z,12.00
2019-02-08T15:38:39.911Z,12.00
2019-02-08T15:41:28.874Z,12.00
2019-02-08T15:44:26.879Z,12.00
2019-02-08T15:47:16.287Z,11.80
2019-02-08T15:50:06.075Z,11.70
2019-02-08T15:52:54.605Z,11.60
2019-02-08T15:55:46.353Z,11.30
2019-02-08T15:58:34.893Z,11.30
2019-02-08T16:01:27.332Z,11.40
2019-02-08T16:04:17.354Z,11.30
2019-02-08T16:07:06.231Z,11.50
2019-02-08T16:09:56.290Z,11.40
2019-02-08T16:12:44.814Z,11.50
2019-02-08T16:15:33.208Z,11.40
2019-02-08T16:18:21.511Z,11.10
2019-02-08T16:21:10.385Z,11.10
2019-02-08T16:23:59.000Z,11.00
2019-02-08T16:26:48.958Z,10.90
2019-02-08T16:29:37.639Z,10.80
2019-02-08T16:32:26.226Z,10.80
2019-02-08T16:35:16.574Z,10.80
2019-02-08T16:38:05.614Z,10.70
2019-02-08T16:40:54.555Z,10.70
2019-02-08T16:43:43.679Z,10.60
2019-02-08T16:46:33.623Z,10.50
2019-02-08T16:49:23.200Z,10.50
2019-02-08T16:52:12.674Z,10.50
2019-02-08T16:55:02.525Z,10.30
2019-02-08T16:57:51.854Z,10.10
2019-02-08T17:00:46.706Z,10.10
2019-02-08T17:03:35.994Z,10.10
2019-02-08T17:06:24.480Z,10.10
2019-02-08T17:09:14.315Z,10.10
2019-02-08T17:12:03.142Z,9.90
2019-02-08T17:14:52.302Z,10.00
2019-02-08T17:17:41.128Z,10.10
2019-02-08T17:20:40.606Z,10.00
2019-02-08T17:23:28.874Z,10.00
2019-02-08T17:26:18.117Z,10.00
2019-02-08T17:29:07.603Z,9.90
2019-02-08T17:31:56.294Z,9.90
2019-02-08T17:34:46.141Z,9.90
2019-02-08T17:37:35.639Z,9.90
2019-02-08T17:40:26.897Z,9.60
2019-02-08T17:43:15.606Z,9.70
2019-02-08T17:46:10.965Z,9.70
2019-02-08T17:49:00.691Z,9.60
2019-02-08T17:51:50.152Z,9.60
2019-02-08T17:54:41.588Z,9.60
2019-02-08T17:57:29.979Z,9.50
2019-02-08T18:03:36.987Z,9.50
2019-02-08T18:06:26.894Z,9.60
2019-02-08T18:09:17.431Z,9.60
2019-02-08T18:12:07.707Z,9.50
2019-02-08T18:14:55.964Z,9.30
2019-02-08T18:17:44.664Z,9.30
2019-02-08T18:20:35.631Z,9.00
2019-02-08T18:23:24.084Z,9.00
2019-02-08T18:26:12.880Z,9.10
2019-02-08T18:29:01.044Z,9.10
2019-02-08T18:31:50.205Z,9.20
2019-02-08T18:34:39.278Z,9.20
2019-02-08T18:37:28.942Z,9.10
2019-02-08T18:40:19.158Z,9.10
2019-02-08T18:43:07.508Z,9.10
2019-02-08T18:45:57.714Z,9.10
2019-02-08T18:48:47.229Z,9.00
2019-02-08T18:51:38.232Z,9.00
2019-02-08T18:54:27.246Z,8.90
2019-02-08T18:57:17.560Z,9.00
2019-02-08T19:00:11.183Z,9.00
2019-02-08T19:03:01.745Z,8.90
2019-02-08T19:05:52.120Z,8.90
2019-02-08T19:08:41.598Z,8.90
2019-02-08T19:11:29.701Z,8.80
2019-02-08T19:14:17.768Z,8.70
2019-02-08T19:17:13.391Z,8.70
2019-02-08T19:20:02.866Z,8.70
2019-02-08T19:22:51.638Z,8.70
2019-02-08T19:25:41.163Z,8.60
2019-02-08T19:28:29.128Z,8.60
2019-02-08T19:31:19.495Z,8.60
2019-02-08T19:34:09.909Z,8.60
2019-02-08T19:36:58.672Z,8.60
2019-02-08T19:39:47.397Z,8.50
2019-02-08T19:42:35.410Z,8.50
2019-02-08T19:45:24.102Z,8.50
2019-02-08T19:48:14.908Z,8.50
2019-02-08T19:51:03.519Z,8.40
2019-02-08T19:53:51.847Z,8.40
2019-02-08T19:56:40.661Z,8.40
2019-02-08T19:59:29.438Z,8.30
2019-02-08T20:02:18.580Z,8.30
2019-02-08T20:05:11.666Z,8.40
2019-02-08T20:08:02.440Z,8.40
2019-02-08T20:10:50.786Z,8.50
2019-02-08T20:13:39.502Z,8.50
2019-02-08T20:16:27.693Z,8.50
2019-02-08T20:19:15.448Z,8.50
2019-02-08T20:22:04.415Z,8.60
2019-02-08T20:24:53.498Z,8.40
2019-02-08T20:27:42.890Z,8.50
2019-02-08T20:30:32.328Z,8.50
2019-02-08T20:33:22.136Z,8.50
2019-02-08T20:36:11.307Z,8.50
2019-02-08T20:39:01.306Z,8.50
2019-02-08T20:41:49.747Z,8.40
2019-02-08T20:44:38.013Z,8.10
2019-02-08T20:50:27.586Z,8.30
2019-02-08T20:53:17.028Z,8.30
2019-02-08T20:56:05.318Z,8.20
2019-02-08T20:58:53.350Z,8.20
2019-02-08T21:01:41.223Z,8.20
2019-02-08T21:04:30.458Z,8.20
2019-02-08T21:07:20.014Z,8.10
2019-02-08T21:10:08.438Z,7.90
2019-02-08T21:12:56.666Z,7.90
2019-02-08T21:15:45.166Z,8.00
2019-02-08T21:18:35.420Z,8.00
2019-02-08T21:21:24.346Z,7.90
2019-02-08T21:24:13.714Z,8.00
2019-02-08T21:27:02.766Z,8.00
2019-02-08T21:29:52.215Z,8.00
2019-02-08T21:35:30.047Z,8.00
2019-02-08T21:38:18.863Z,8.10
2019-02-08T21:41:07.450Z,8.10
2019-02-08T21:43:55.882Z,8.10
2019-02-08T21:46:45.105Z,8.00
2019-02-08T21:49:34.638Z,7.90
2019-02-08T21:52:23.622Z,7.80
2019-02-08T21:55:14.403Z,7.90
2019-02-08T21:58:02.941Z,8.00
2019-02-08T22:00:53.293Z,7.90
2019-02-08T22:03:41.810Z,7.90
2019-02-08T22:06:30.902Z,7.90
2019-02-08T22:09:19.609Z,7.90
2019-02-08T22:12:07.782Z,7.90
2019-02-08T22:14:56.415Z,8.00
2019-02-08T22:17:45.164Z,8.10
2019-02-08T22:20:33.080Z,8.10
2019-02-08T22:23:21.814Z,8.10
2019-02-08T22:26:10.658Z,8.10
2019-02-08T22:29:01.028Z,8.10
2019-02-08T22:31:49.959Z,8.10
2019-02-08T22:34:39.581Z,8.10
2019-02-08T22:37:28.796Z,8.00
2019-02-08T22:40:18.197Z,8.00
2019-02-08T22:43:06.649Z,8.00
2019-02-08T22:45:55.494Z,8.10
2019-02-08T22:48:50.549Z,8.00
2019-02-08T22:51:39.559Z,7.90
2019-02-08T22:54:28.247Z,7.80
2019-02-08T22:57:17.160Z,7.90
2019-02-08T23:00:15.821Z,8.10
2019-02-08T23:03:04.871Z,8.10
2019-02-08T23:05:53.607Z,8.00
2019-02-08T23:08:41.321Z,8.20
2019-02-08T23:11:29.612Z,8.00
2019-02-08T23:14:17.807Z,8.00
2019-02-08T23:17:06.032Z,8.00
2019-02-08T23:19:54.092Z,7.90
2019-02-08T23:22:42.126Z,7.80
2019-02-08T23:25:30.413Z,8.00
2019-02-08T23:28:18.526Z,8.10
2019-02-08T23:31:07.300Z,8.20
2019-02-08T23:33:55.781Z,8.10
2019-02-08T23:36:44.588Z,7.80
2019-02-08T23:39:33.419Z,7.80
2019-02-08T23:42:22.353Z,7.70
2019-02-08T23:45:15.002Z,7.60
2019-02-08T23:48:06.091Z,7.80
2019-02-08T23:50:54.210Z,7.90
2019-02-08T23:53:42.450Z,8.00
2019-02-08T23:56:30.270Z,8.00
2019-02-08T23:59:19.034Z,8.00
